Decoded Metar for PASX (SOLDOTNA in AK, USA) (IATA:SXQ) | Meteo·Mobile Aviation Weather
aviador You're here:

PASX Decoded Metar

SOLDOTNA in AK, USA
Report Time2019-02-16 05:56:00
UTC Time2019-02-16 06:58:39
Flight Rules vfr VFR
Wind100° at 04 kt
W.Decomp.*RWY 07: 3.9 kt HW 0.8 kt RCW
W.Rank100° ranks 5
Current wind is below 100° avg. (5.2)
Visibility9999 m
Phenomena:N/A
Clouds:N/A
Expected CloudBase > 400 ft AGL from Temp-Dew spread
CeilingNone
Temp-16°C (ISA -31)
Dew Point-17°C (92% RH)
AAT-20.9°C
QNH1020 hPa
Density Alt-4,019 ft
Elevation105 ft
Report Wrong Elevation
Raw Report
PASX 160556Z AUTO 10004KT 10SM CLR M16/M17 A3011 RMK AO2 SLP208
T11561172 11050 21167 50003 FZRANO=

Extra information for PASX:More info

Metar Taf Metar & Taf Last 4 Metars F.Rules Stats Wind Profile Meteogram Temp Stats Airport Information Weather charts Add Link Nearby VenuesMetar ALERT Operation Metar Decoded Social comments

AIRNAV info for PASX